createdAt,value
2018-12-12T00:00:37.939Z,82.31
2018-12-12T00:02:42.862Z,82.45
2018-12-12T00:04:47.658Z,82.36
2018-12-12T00:06:53.816Z,81.88
2018-12-12T00:09:00.976Z,82.08
2018-12-12T00:11:05.895Z,81.72
2018-12-12T00:13:10.807Z,81.86
2018-12-12T00:15:17.581Z,81.55
2018-12-12T00:17:22.867Z,81.75
2018-12-12T00:19:28.442Z,81.42
2018-12-12T00:21:34.788Z,81.36
2018-12-12T00:23:40.272Z,81.10
2018-12-12T00:25:45.031Z,80.60
2018-12-12T00:27:50.462Z,80.79
2018-12-12T00:29:55.300Z,80.70
2018-12-12T00:32:00.130Z,80.70
2018-12-12T00:34:04.996Z,80.60
2018-12-12T00:36:09.798Z,80.91
2018-12-12T00:38:14.500Z,80.67
2018-12-12T00:40:19.172Z,80.49
2018-12-12T00:42:24.055Z,80.39
2018-12-12T00:44:30.164Z,79.54
2018-12-12T00:46:37.948Z,79.33
2018-12-12T00:48:43.352Z,79.30
2018-12-12T00:50:48.055Z,79.80
2018-12-12T00:52:52.919Z,79.80
2018-12-12T00:54:58.359Z,79.63
2018-12-12T00:57:04.095Z,79.51
2018-12-12T00:59:08.989Z,79.58
2018-12-12T01:01:13.749Z,79.58
2018-12-12T01:03:18.443Z,79.29
2018-12-12T01:05:23.188Z,79.28
2018-12-12T01:07:27.819Z,79.62
2018-12-12T01:09:33.058Z,79.28
2018-12-12T01:11:42.848Z,79.31
2018-12-12T01:13:47.528Z,79.71
2018-12-12T01:15:53.421Z,79.66
2018-12-12T01:17:58.191Z,79.80
2018-12-12T01:20:03.125Z,80.09
2018-12-12T01:22:07.836Z,79.95
2018-12-12T01:24:13.572Z,80.16
2018-12-12T01:26:19.204Z,80.52
2018-12-12T01:28:24.622Z,80.41
2018-12-12T01:30:29.398Z,80.82
2018-12-12T01:32:34.512Z,81.09
2018-12-12T01:34:39.258Z,81.10
2018-12-12T01:36:43.965Z,81.17
2018-12-12T01:38:48.702Z,81.41
2018-12-12T01:40:54.233Z,81.44
2018-12-12T01:42:59.914Z,81.41
2018-12-12T01:45:05.549Z,81.78
2018-12-12T01:47:11.354Z,82.05
2018-12-12T01:49:16.853Z,82.29
2018-12-12T01:51:21.666Z,82.38
2018-12-12T01:53:26.433Z,82.48
2018-12-12T01:55:31.273Z,82.97
2018-12-12T01:57:36.111Z,83.05
2018-12-12T01:59:40.827Z,83.04
2018-12-12T02:01:45.562Z,83.56
2018-12-12T02:03:50.396Z,83.27
2018-12-12T02:05:55.094Z,83.54
2018-12-12T02:08:01.227Z,83.69
2018-12-12T02:10:07.554Z,83.68
2018-12-12T02:12:13.031Z,83.75
2018-12-12T02:14:17.820Z,83.58
2018-12-12T02:16:22.912Z,83.12
2018-12-12T02:18:27.664Z,83.03
2018-12-12T02:20:32.342Z,83.44
2018-12-12T02:22:37.616Z,83.51
2018-12-12T02:24:43.058Z,83.56
2018-12-12T02:26:48.590Z,83.75
2018-12-12T02:28:53.252Z,83.90
2018-12-12T02:30:58.608Z,83.83
2018-12-12T02:33:03.444Z,83.91
2018-12-12T02:35:09.135Z,84.02
2018-12-12T02:37:21.449Z,84.11
2018-12-12T02:39:26.273Z,83.58
2018-12-12T02:41:30.910Z,82.95
2018-12-12T02:43:35.586Z,83.48
2018-12-12T02:45:40.262Z,83.13
2018-12-12T02:47:45.011Z,83.13
2018-12-12T02:49:49.827Z,83.24
2018-12-12T02:51:54.691Z,83.01
2018-12-12T02:54:00.385Z,83.09
2018-12-12T02:56:05.177Z,83.15
2018-12-12T02:58:09.888Z,82.28
2018-12-12T03:00:14.824Z,82.42
2018-12-12T03:02:19.522Z,82.62
2018-12-12T03:04:24.410Z,82.33
2018-12-12T03:06:29.094Z,82.29
2018-12-12T03:08:34.167Z,82.26
2018-12-12T03:10:39.159Z,81.75
2018-12-12T03:12:44.266Z,81.71
2018-12-12T03:14:49.858Z,82.04
2018-12-12T03:16:55.824Z,82.04
2018-12-12T03:19:01.677Z,81.93
2018-12-12T03:21:06.590Z,82.07
2018-12-12T03:23:12.426Z,82.27
2018-12-12T03:25:18.750Z,82.09
2018-12-12T03:27:23.590Z,81.61
2018-12-12T03:29:28.321Z,81.15
2018-12-12T03:31:33.060Z,81.24
2018-12-12T03:33:37.896Z,81.60
2018-12-12T03:35:42.582Z,81.37
2018-12-12T03:37:47.420Z,81.39
2018-12-12T03:39:52.196Z,81.59
2018-12-12T03:41:57.143Z,81.72
2018-12-12T03:44:02.135Z,82.02
2018-12-12T03:46:07.746Z,81.53
2018-12-12T03:48:12.466Z,81.91
2018-12-12T03:50:17.202Z,81.99
2018-12-12T03:52:21.872Z,81.76
2018-12-12T03:54:26.627Z,82.09
2018-12-12T03:56:32.127Z,82.04
2018-12-12T03:58:37.990Z,82.12
2018-12-12T04:00:42.724Z,82.02
2018-12-12T04:02:47.481Z,82.12
2018-12-12T04:04:52.231Z,82.29
2018-12-12T04:06:58.137Z,82.01
2018-12-12T04:09:03.147Z,82.21
2018-12-12T04:11:08.614Z,82.65
2018-12-12T04:13:13.394Z,82.67
2018-12-12T04:15:18.100Z,82.61
2018-12-12T04:17:23.458Z,82.71
2018-12-12T04:19:28.296Z,82.41
2018-12-12T04:21:33.561Z,82.55
2018-12-12T04:23:38.411Z,82.27
2018-12-12T04:25:43.946Z,82.50
2018-12-12T04:27:49.317Z,82.73
2018-12-12T04:29:54.077Z,82.38
2018-12-12T04:31:59.618Z,82.50
2018-12-12T04:34:04.647Z,82.23
2018-12-12T04:36:11.068Z,82.39
2018-12-12T04:38:16.810Z,82.46
2018-12-12T04:40:22.586Z,82.71
2018-12-12T04:42:27.486Z,82.65
2018-12-12T04:44:32.496Z,82.29
2018-12-12T04:46:37.460Z,82.45
2018-12-12T04:48:42.459Z,82.36
2018-12-12T04:50:48.384Z,82.60
2018-12-12T04:52:53.412Z,82.13
2018-12-12T04:54:58.631Z,82.12
2018-12-12T04:57:03.823Z,81.94
2018-12-12T04:59:10.006Z,81.92
2018-12-12T05:01:14.919Z,81.63
2018-12-12T05:03:19.694Z,81.82
2018-12-12T05:05:24.669Z,81.84
2018-12-12T05:07:29.444Z,81.26
2018-12-12T05:09:38.684Z,81.22
2018-12-12T05:11:54.926Z,81.15
2018-12-12T05:14:04.672Z,81.57
2018-12-12T06:18:34.858Z,83.76
2018-12-12T06:31:44.212Z,84.20
2018-12-12T08:48:39.538Z,81.92
2018-12-12T08:53:14.307Z,81.08
2018-12-12T10:16:02.008Z,62.20
2018-12-12T11:18:09.126Z,60.49
2018-12-12T15:23:05.965Z,67.50
2018-12-12T15:25:12.318Z,67.65
2018-12-12T15:27:19.230Z,68.32
2018-12-12T15:29:25.050Z,68.49
2018-12-12T15:31:31.035Z,68.71
2018-12-12T15:33:36.253Z,69.14
2018-12-12T15:35:42.629Z,69.42
2018-12-12T15:37:47.733Z,69.91
2018-12-12T15:39:53.054Z,70.27
2018-12-12T15:41:58.498Z,70.22
2018-12-12T15:44:03.471Z,70.12
2018-12-12T15:46:08.472Z,70.29
2018-12-12T15:48:14.684Z,69.91
2018-12-12T15:50:19.973Z,70.51
2018-12-12T15:52:25.067Z,70.26
2018-12-12T15:54:31.006Z,70.82
2018-12-12T15:56:37.620Z,70.96
2018-12-12T15:58:42.860Z,70.43
2018-12-12T16:00:51.090Z,70.23
2018-12-12T16:02:56.670Z,71.15
2018-12-12T16:05:02.085Z,71.40
2018-12-12T16:07:07.395Z,71.21
2018-12-12T16:09:13.802Z,70.86
2018-12-12T16:11:18.830Z,70.87
2018-12-12T16:13:23.738Z,71.26
2018-12-12T16:15:28.714Z,71.20
2018-12-12T16:17:33.733Z,71.42
2018-12-12T16:19:39.151Z,71.52
2018-12-12T16:21:44.830Z,71.21
2018-12-12T16:23:51.179Z,71.62
2018-12-12T16:25:56.321Z,71.89
2018-12-12T16:28:03.262Z,72.28
2018-12-12T16:30:09.426Z,72.22
2018-12-12T16:32:14.518Z,72.08
2018-12-12T16:34:20.147Z,71.71
2018-12-12T16:36:25.326Z,71.96
2018-12-12T16:38:30.702Z,71.40
2018-12-12T16:40:35.955Z,71.52
2018-12-12T16:42:43.342Z,71.83
2018-12-12T16:44:48.932Z,71.83
2018-12-12T16:46:54.089Z,72.51
2018-12-12T16:48:59.128Z,72.17
2018-12-12T16:51:04.451Z,72.87
2018-12-12T16:53:11.869Z,72.77
2018-12-12T16:55:17.041Z,73.04
2018-12-12T16:57:22.227Z,73.31
2018-12-12T16:59:28.694Z,73.39
2018-12-12T17:01:34.083Z,73.41
2018-12-12T17:03:53.717Z,73.74
2018-12-12T17:05:59.296Z,73.81
2018-12-12T17:08:05.420Z,73.68
2018-12-12T17:10:12.572Z,73.98
2018-12-12T17:12:17.781Z,74.37
2018-12-12T17:14:28.339Z,73.66
2018-12-12T17:16:33.612Z,74.27
2018-12-12T17:18:39.655Z,74.17
2018-12-12T17:20:45.031Z,73.86
2018-12-12T17:22:52.698Z,73.85
2018-12-12T17:24:57.918Z,73.52
2018-12-12T17:27:03.465Z,73.55
2018-12-12T17:29:10.350Z,73.25
2018-12-12T17:31:16.873Z,73.35
2018-12-12T17:33:24.627Z,73.42
2018-12-12T17:35:30.066Z,73.39
2018-12-12T17:37:41.695Z,73.61
2018-12-12T17:39:47.221Z,73.65
2018-12-12T17:41:54.168Z,73.41
2018-12-12T17:43:59.632Z,73.64
2018-12-12T17:46:05.011Z,73.74
2018-12-12T17:48:12.418Z,73.67
2018-12-12T17:50:19.765Z,73.96
2018-12-12T17:52:26.864Z,74.24
2018-12-12T17:54:33.809Z,73.86
2018-12-12T17:56:39.608Z,74.20
2018-12-12T17:58:45.220Z,73.61
2018-12-12T18:00:52.791Z,74.00
2018-12-12T18:02:58.218Z,73.82
2018-12-12T18:05:04.038Z,73.74
2018-12-12T18:07:10.782Z,73.84
2018-12-12T18:09:17.179Z,73.53
2018-12-12T18:11:24.534Z,74.02
2018-12-12T18:13:30.765Z,73.69
2018-12-12T18:15:36.194Z,72.99
2018-12-12T18:17:42.028Z,73.06
2018-12-12T18:19:47.555Z,72.75
2018-12-12T18:21:54.413Z,73.26
2018-12-12T18:24:00.862Z,72.45
2018-12-12T18:26:06.036Z,72.12
2018-12-12T18:28:11.208Z,72.07
2018-12-12T18:30:16.790Z,72.42
2018-12-12T18:32:21.838Z,72.03
2018-12-12T18:34:27.618Z,71.85
2018-12-12T18:36:32.933Z,71.73
2018-12-12T18:38:39.048Z,71.43
2018-12-12T18:40:45.376Z,71.62
2018-12-12T18:42:51.833Z,70.65
2018-12-12T18:44:58.218Z,70.61
2018-12-12T18:47:04.043Z,70.37
2018-12-12T18:49:10.630Z,70.82
2018-12-12T18:51:15.672Z,70.70
2018-12-12T18:53:20.849Z,70.42
2018-12-12T18:55:26.594Z,70.05
2018-12-12T18:57:31.623Z,71.04
2018-12-12T18:59:36.830Z,70.54
2018-12-12T19:01:42.251Z,70.46
2018-12-12T19:03:48.846Z,70.67
2018-12-12T19:05:54.257Z,70.61
2018-12-12T19:07:59.946Z,70.82
2018-12-12T19:10:05.828Z,70.71
2018-12-12T19:12:11.214Z,71.04
2018-12-12T19:14:18.525Z,70.79
2018-12-12T19:16:25.553Z,70.88
2018-12-12T19:18:33.342Z,70.54
2018-12-12T19:20:38.434Z,70.64
2018-12-12T19:22:44.904Z,70.33
2018-12-12T19:24:50.779Z,70.57
2018-12-12T19:26:56.494Z,71.46
2018-12-12T19:29:02.198Z,70.94
2018-12-12T19:31:08.356Z,70.99
2018-12-12T19:33:15.104Z,70.94
2018-12-12T19:35:21.211Z,70.97
2018-12-12T19:37:28.864Z,70.76
2018-12-12T19:39:34.756Z,71.19
2018-12-12T19:41:39.780Z,71.11
2018-12-12T19:43:46.565Z,71.52
2018-12-12T19:45:55.556Z,71.44
2018-12-12T19:48:04.587Z,72.39
2018-12-12T19:50:10.330Z,71.90
2018-12-12T19:52:16.642Z,72.32
2018-12-12T19:54:22.624Z,72.19
2018-12-12T19:56:28.092Z,71.91
2018-12-12T19:58:37.157Z,72.20
2018-12-12T20:00:49.119Z,72.10
2018-12-12T20:03:00.028Z,72.05
2018-12-12T20:05:12.341Z,71.86
2018-12-12T20:07:21.709Z,72.22
2018-12-12T20:09:30.768Z,71.94
2018-12-12T20:11:40.354Z,71.68
2018-12-12T20:13:51.507Z,71.39
2018-12-12T20:16:01.028Z,71.11
2018-12-12T20:18:09.798Z,71.06
2018-12-12T20:20:17.051Z,70.96
2018-12-12T20:22:25.917Z,70.51
2018-12-12T20:24:39.555Z,70.12
2018-12-12T20:26:48.991Z,70.09
2018-12-12T20:29:00.086Z,69.58
2018-12-12T20:31:11.590Z,69.06
2018-12-12T20:33:21.503Z,68.69
2018-12-12T20:35:32.137Z,68.57
2018-12-12T20:37:43.410Z,68.61
2018-12-12T20:39:56.313Z,68.71
2018-12-12T20:42:07.862Z,68.63
2018-12-12T20:44:15.536Z,68.42
2018-12-12T20:46:22.295Z,68.52
2018-12-12T20:48:32.746Z,67.79
2018-12-12T20:50:43.222Z,67.34
2018-12-12T20:52:49.432Z,66.92
2018-12-12T20:54:58.116Z,66.57
2018-12-12T20:57:08.759Z,66.57
2018-12-12T20:59:17.361Z,65.84
2018-12-12T21:01:25.867Z,66.18
2018-12-12T21:03:36.546Z,66.40
2018-12-12T21:05:54.342Z,66.11
2018-12-12T21:07:59.426Z,65.84
2018-12-12T21:10:10.801Z,66.06
2018-12-12T21:12:20.671Z,65.48
2018-12-12T21:14:30.337Z,65.41
2018-12-12T21:16:37.410Z,65.82
2018-12-12T21:18:46.527Z,66.04
2018-12-12T21:20:58.813Z,66.11
2018-12-12T21:23:05.794Z,65.98
2018-12-12T21:25:13.687Z,66.58
2018-12-12T21:27:21.769Z,66.68
2018-12-12T21:29:28.133Z,67.36
2018-12-12T21:31:35.222Z,67.45
2018-12-12T21:33:41.801Z,67.55
2018-12-12T21:35:51.579Z,67.44
2018-12-12T21:37:58.488Z,67.90
2018-12-12T21:40:03.913Z,68.31
2018-12-12T21:42:09.997Z,68.74
2018-12-12T21:44:15.486Z,68.69
2018-12-12T21:46:22.226Z,68.06
2018-12-12T21:48:28.546Z,68.64
2018-12-12T21:50:34.723Z,68.89
2018-12-12T21:55:11.545Z,69.22
2018-12-12T21:57:17.565Z,69.39
2018-12-12T21:59:22.993Z,69.55
2018-12-12T22:01:31.066Z,69.89
2018-12-12T22:03:36.553Z,70.35
2018-12-12T22:05:42.254Z,70.34
2018-12-12T22:07:47.852Z,70.19
2018-12-12T22:09:53.399Z,70.31
2018-12-12T22:11:58.753Z,70.82
2018-12-12T22:14:04.318Z,70.29
2018-12-12T22:16:11.578Z,70.92
2018-12-12T22:18:17.769Z,71.02
2018-12-12T22:20:23.861Z,70.96
2018-12-12T22:22:29.417Z,70.97
2018-12-12T22:24:35.612Z,71.05
2018-12-12T22:26:42.065Z,70.75
2018-12-12T22:28:48.553Z,71.57
2018-12-12T22:30:55.325Z,71.23
2018-12-12T22:33:00.733Z,71.55
2018-12-12T22:35:06.682Z,71.88
2018-12-12T22:37:13.400Z,71.61
2018-12-12T22:39:18.733Z,71.34
2018-12-12T22:41:24.374Z,71.96
2018-12-12T22:43:29.380Z,72.04
2018-12-12T22:45:34.730Z,72.51
2018-12-12T22:47:41.454Z,72.43
2018-12-12T22:49:47.642Z,72.20
2018-12-12T22:51:53.513Z,71.79
2018-12-12T22:53:59.990Z,71.78
2018-12-12T22:56:05.459Z,71.76
2018-12-12T22:58:12.355Z,71.59
2018-12-12T23:06:43.657Z,72.20
2018-12-12T23:08:48.935Z,72.07
2018-12-12T23:10:54.014Z,72.46
2018-12-12T23:12:59.192Z,72.34
2018-12-12T23:15:05.197Z,72.40
2018-12-12T23:17:10.641Z,72.80
2018-12-12T23:19:15.985Z,72.83
2018-12-12T23:21:21.488Z,73.16
2018-12-12T23:23:26.867Z,73.47
2018-12-12T23:25:32.396Z,73.10
2018-12-12T23:27:38.489Z,72.73
2018-12-12T23:29:43.715Z,72.53
2018-12-12T23:31:51.177Z,72.48
2018-12-12T23:33:57.518Z,73.16
2018-12-12T23:36:04.276Z,73.18
2018-12-12T23:38:09.832Z,72.79
2018-12-12T23:40:15.840Z,72.99
2018-12-12T23:42:21.226Z,73.03
2018-12-12T23:44:26.479Z,73.69
2018-12-12T23:46:31.988Z,73.11
2018-12-12T23:48:36.891Z,73.31
2018-12-12T23:50:42.027Z,73.47
2018-12-12T23:52:47.103Z,73.71
2018-12-12T23:54:52.590Z,73.67
2018-12-12T23:56:58.110Z,73.88
2018-12-12T23:59:03.966Z,73.45
